createdAt,value
2019-06-27T00:01:59.709Z,15.63
2019-06-27T00:04:28.197Z,17.12
2019-06-27T00:06:57.955Z,16.40
2019-06-27T00:09:26.877Z,19.90
2019-06-27T00:11:55.365Z,17.65
2019-06-27T00:14:23.869Z,17.95
2019-06-27T00:20:21.163Z,16.97
2019-06-27T00:25:56.401Z,15.10
2019-06-27T00:28:28.780Z,24.80
2019-06-27T00:31:03.179Z,14.55
2019-06-27T00:33:31.884Z,19.15
2019-06-27T00:36:01.486Z,22.73
2019-06-27T00:41:31.278Z,13.65
2019-06-27T00:44:01.826Z,14.55
2019-06-27T00:46:30.280Z,18.45
2019-06-27T00:48:59.907Z,17.17
2019-06-27T00:51:28.598Z,16.42
2019-06-27T00:53:57.316Z,15.28
2019-06-27T00:56:25.823Z,20.37
2019-06-27T00:58:54.403Z,15.23
2019-06-27T01:01:22.774Z,17.55
2019-06-27T01:03:51.267Z,18.73
2019-06-27T01:06:19.739Z,15.23
2019-06-27T01:08:48.520Z,14.85
2019-06-27T01:11:17.049Z,14.50
2019-06-27T01:13:45.502Z,16.00
2019-06-27T01:16:14.238Z,16.95
2019-06-27T01:18:58.038Z,16.90
2019-06-27T01:27:42.492Z,17.12
2019-06-27T01:33:17.588Z,18.17
2019-06-27T01:35:59.238Z,17.87
2019-06-27T01:38:38.788Z,15.88
2019-06-27T01:41:08.271Z,16.85
2019-06-27T01:43:36.812Z,20.48
2019-06-27T01:46:06.134Z,24.65
2019-06-27T01:48:35.631Z,20.75
2019-06-27T01:51:04.190Z,22.70
2019-06-27T01:53:32.622Z,20.80
2019-06-27T01:56:01.212Z,20.57
2019-06-27T01:58:29.704Z,21.60
2019-06-27T02:00:58.216Z,27.25
2019-06-27T02:03:26.758Z,23.45
2019-06-27T02:05:55.270Z,18.45
2019-06-27T02:08:24.147Z,22.35
2019-06-27T02:10:52.691Z,20.12
2019-06-27T02:13:21.256Z,18.67
2019-06-27T02:15:49.955Z,20.68
2019-06-27T02:18:34.668Z,20.62
2019-06-27T02:21:04.977Z,21.15
2019-06-27T02:23:34.262Z,19.33
2019-06-27T02:26:14.474Z,21.48
2019-06-27T02:28:46.424Z,18.07
2019-06-27T02:34:21.495Z,17.67
2019-06-27T02:37:00.234Z,17.92
2019-06-27T02:39:40.914Z,20.52
2019-06-27T02:42:27.216Z,17.95
2019-06-27T02:44:56.828Z,23.25
2019-06-27T02:47:27.982Z,23.05
2019-06-27T02:49:56.748Z,23.00
2019-06-27T02:52:25.315Z,20.30
2019-06-27T02:54:54.045Z,23.67
2019-06-27T02:57:23.553Z,25.72
2019-06-27T02:59:53.348Z,22.95
2019-06-27T03:02:21.895Z,18.55
2019-06-27T03:04:50.606Z,20.05
2019-06-27T03:07:19.112Z,19.23
2019-06-27T03:09:47.674Z,21.77
2019-06-27T03:12:16.215Z,20.25
2019-06-27T03:14:44.794Z,21.87
2019-06-27T03:20:23.128Z,20.20
2019-06-27T03:23:00.667Z,20.15
2019-06-27T03:25:35.221Z,24.00
2019-06-27T03:28:50.994Z,21.60
2019-06-27T03:31:12.308Z,23.67
2019-06-27T03:33:48.861Z,24.72
2019-06-27T03:36:18.409Z,21.27
2019-06-27T03:38:52.085Z,20.05
2019-06-27T03:41:32.922Z,25.10
2019-06-27T03:44:21.353Z,28.55
2019-06-27T03:46:49.897Z,29.85
2019-06-27T03:49:18.719Z,24.40
2019-06-27T03:51:47.471Z,26.33
2019-06-27T03:54:16.411Z,24.82
2019-06-27T03:56:44.907Z,24.18
2019-06-27T03:59:14.421Z,21.75
2019-06-27T04:01:42.897Z,23.40
2019-06-27T04:04:11.344Z,21.87
2019-06-27T04:06:39.937Z,21.77
2019-06-27T04:09:08.511Z,28.40
2019-06-27T04:11:37.207Z,22.67
2019-06-27T04:14:06.502Z,27.50
2019-06-27T04:16:48.981Z,27.42
2019-06-27T04:19:29.373Z,25.60
2019-06-27T04:22:19.343Z,24.30
2019-06-27T04:28:06.019Z,21.27
2019-06-27T04:36:47.419Z,26.52
2019-06-27T04:48:06.186Z,19.02
2019-06-27T04:50:34.723Z,23.50
2019-06-27T04:53:04.624Z,22.60
2019-06-27T04:55:33.222Z,20.05
2019-06-27T04:58:02.713Z,21.17
2019-06-27T05:00:31.316Z,19.82
2019-06-27T05:03:00.894Z,18.45
2019-06-27T05:05:31.295Z,20.08
2019-06-27T05:07:59.791Z,20.40
2019-06-27T05:10:28.494Z,16.82
2019-06-27T05:12:56.938Z,15.35
2019-06-27T05:15:49.852Z,18.45
2019-06-27T05:18:18.285Z,15.00
2019-06-27T05:20:47.769Z,13.45
2019-06-27T05:23:28.208Z,18.75
2019-06-27T05:26:01.448Z,14.33
2019-06-27T05:28:32.573Z,15.95
2019-06-27T05:31:01.059Z,14.30
2019-06-27T05:33:36.319Z,12.47
2019-06-27T05:36:05.051Z,15.68
2019-06-27T05:38:33.555Z,11.65
2019-06-27T05:41:02.054Z,12.18
2019-06-27T05:43:30.499Z,19.70
2019-06-27T05:45:59.212Z,16.85
2019-06-27T05:48:27.711Z,17.10
2019-06-27T05:50:56.197Z,12.93
2019-06-27T05:53:24.664Z,12.15
2019-06-27T05:55:53.424Z,11.95
2019-06-27T05:58:21.937Z,12.82
2019-06-27T06:00:50.430Z,10.78
2019-06-27T06:03:18.911Z,13.30
2019-06-27T06:05:48.478Z,11.18
2019-06-27T06:08:16.892Z,15.60
2019-06-27T06:10:45.357Z,12.65
2019-06-27T06:13:13.844Z,12.35
2019-06-27T06:15:42.354Z,12.55
2019-06-27T06:18:10.812Z,12.85
2019-06-27T06:20:39.879Z,15.80
2019-06-27T06:23:08.421Z,11.38
2019-06-27T06:25:37.879Z,10.75
2019-06-27T06:28:06.680Z,16.55
2019-06-27T06:30:44.428Z,10.63
2019-06-27T06:33:03.642Z,10.95
2019-06-27T06:35:34.157Z,15.85
2019-06-27T06:38:02.977Z,13.15
2019-06-27T06:40:31.429Z,17.90
2019-06-27T06:43:02.993Z,14.00
2019-06-27T06:45:55.825Z,11.57
2019-06-27T06:48:24.382Z,9.98
2019-06-27T06:50:52.888Z,8.78
2019-06-27T06:53:21.304Z,11.57
2019-06-27T06:55:49.769Z,13.08
2019-06-27T06:58:18.531Z,14.00
2019-06-27T07:01:00.927Z,12.47
2019-06-27T07:03:16.084Z,9.75
2019-06-27T07:05:44.508Z,10.35
2019-06-27T07:08:12.992Z,10.88
2019-06-27T07:10:51.909Z,11.48
2019-06-27T07:13:23.855Z,11.25
2019-06-27T07:15:52.620Z,12.58
2019-06-27T07:18:22.138Z,10.78
2019-06-27T07:20:57.763Z,11.85
2019-06-27T07:23:27.559Z,9.40
2019-06-27T07:25:58.000Z,11.43
2019-06-27T07:31:17.374Z,11.83
2019-06-27T07:33:36.740Z,12.82
2019-06-27T07:36:08.005Z,11.57
2019-06-27T07:38:37.516Z,11.73
2019-06-27T07:41:07.004Z,12.68
2019-06-27T07:43:38.779Z,11.57
2019-06-27T07:46:23.715Z,12.35
2019-06-27T07:48:35.660Z,10.95
2019-06-27T07:51:17.118Z,11.43
2019-06-27T07:53:49.111Z,9.30
2019-06-27T07:56:18.677Z,8.18
2019-06-27T07:58:47.335Z,13.70
2019-06-27T08:01:34.582Z,9.63
2019-06-27T08:03:55.199Z,10.43
2019-06-27T08:06:23.671Z,12.40
2019-06-27T08:08:52.172Z,9.25
2019-06-27T08:11:23.045Z,11.13
2019-06-27T08:16:25.462Z,15.15
2019-06-27T08:18:54.953Z,11.45
2019-06-27T08:21:24.423Z,9.65
2019-06-27T08:23:52.918Z,18.47
2019-06-27T08:26:21.659Z,12.23
2019-06-27T08:28:53.249Z,11.88
2019-06-27T08:31:23.022Z,10.63
2019-06-27T08:33:52.584Z,10.90
2019-06-27T08:36:21.353Z,14.37
2019-06-27T08:38:51.822Z,14.50
2019-06-27T08:41:24.359Z,10.30
2019-06-27T08:43:53.862Z,10.98
2019-06-27T08:46:22.333Z,9.63
2019-06-27T08:48:52.789Z,8.75
2019-06-27T08:54:08.120Z,11.35
2019-06-27T08:56:37.591Z,10.65
2019-06-27T08:59:07.078Z,12.27
2019-06-27T09:01:35.870Z,13.00
2019-06-27T09:04:09.567Z,11.70
2019-06-27T09:06:38.051Z,8.63
2019-06-27T09:09:06.531Z,8.95
2019-06-27T09:11:38.101Z,9.83
2019-06-27T09:14:07.082Z,10.20
2019-06-27T09:16:35.530Z,10.60
2019-06-27T09:19:04.073Z,10.75
2019-06-27T09:21:32.559Z,14.68
2019-06-27T09:24:01.104Z,9.70
2019-06-27T09:26:29.779Z,9.93
2019-06-27T09:28:59.304Z,11.45
2019-06-27T09:31:27.785Z,7.97
2019-06-27T09:33:56.351Z,15.00
2019-06-27T09:36:24.751Z,9.03
2019-06-27T09:38:53.531Z,8.08
2019-06-27T09:41:22.236Z,10.90
2019-06-27T09:43:50.702Z,9.80
2019-06-27T09:46:19.355Z,10.05
2019-06-27T09:48:47.778Z,9.25
2019-06-27T09:51:18.457Z,8.13
2019-06-27T09:53:46.893Z,11.43
2019-06-27T09:56:15.380Z,9.30
2019-06-27T09:58:43.871Z,9.25
2019-06-27T10:01:12.323Z,9.00
2019-06-27T10:03:41.522Z,9.10
2019-06-27T10:06:10.033Z,7.40
2019-06-27T10:08:39.602Z,5.92
2019-06-27T10:11:07.985Z,6.62
2019-06-27T10:13:36.475Z,9.68
2019-06-27T10:16:08.040Z,6.55
2019-06-27T10:18:36.535Z,12.03
2019-06-27T10:21:04.999Z,5.03
2019-06-27T10:23:33.758Z,9.55
2019-06-27T10:26:02.460Z,6.22
2019-06-27T10:28:31.085Z,8.18
2019-06-27T10:31:00.575Z,7.80
2019-06-27T10:33:29.037Z,7.73
2019-06-27T10:35:57.789Z,6.92
2019-06-27T10:38:27.237Z,7.80
2019-06-27T10:40:55.817Z,8.88
2019-06-27T10:43:24.288Z,5.25
2019-06-27T10:45:52.892Z,5.70
2019-06-27T10:48:21.252Z,4.97
2019-06-27T10:50:49.800Z,5.55
2019-06-27T10:53:18.229Z,6.90
2019-06-27T10:55:46.714Z,6.92
2019-06-27T10:58:15.184Z,7.80
2019-06-27T11:00:43.674Z,5.83
2019-06-27T11:03:16.131Z,5.60
2019-06-27T11:05:41.357Z,4.50
2019-06-27T11:08:09.827Z,5.62
2019-06-27T11:10:38.600Z,8.38
2019-06-27T11:13:07.107Z,6.67
2019-06-27T11:15:35.594Z,8.20
2019-06-27T11:18:04.123Z,9.65
2019-06-27T11:20:32.609Z,7.65
2019-06-27T11:23:01.087Z,6.60
2019-06-27T11:25:29.570Z,12.28
2019-06-27T11:27:58.057Z,7.50
2019-06-27T11:30:26.518Z,9.95
2019-06-27T11:32:54.986Z,7.37
2019-06-27T11:35:23.486Z,6.22
2019-06-27T11:37:52.257Z,8.88
2019-06-27T11:40:21.778Z,5.92
2019-06-27T11:42:50.274Z,7.47
2019-06-27T11:45:18.748Z,10.38
2019-06-27T11:47:48.873Z,4.53
2019-06-27T11:50:26.863Z,6.77
2019-06-27T11:52:56.382Z,3.70
2019-06-27T11:55:29.996Z,5.00
2019-06-27T11:58:01.148Z,4.10
2019-06-27T12:00:38.981Z,5.10
2019-06-27T12:03:13.436Z,4.87
2019-06-27T12:05:43.449Z,5.33
2019-06-27T12:08:13.449Z,5.35
2019-06-27T12:10:42.556Z,7.92
2019-06-27T12:13:12.695Z,4.17
2019-06-27T12:15:41.380Z,4.62
2019-06-27T12:18:09.861Z,3.45
2019-06-27T12:20:38.419Z,5.90
2019-06-27T12:23:06.909Z,3.00
2019-06-27T12:25:35.429Z,2.40
2019-06-27T12:28:03.955Z,2.27
2019-06-27T12:30:32.352Z,4.55
2019-06-27T12:33:00.827Z,2.62
2019-06-27T12:35:30.272Z,2.52
2019-06-27T12:37:58.711Z,2.80
2019-06-27T12:40:27.208Z,4.72
2019-06-27T12:42:55.671Z,4.83
2019-06-27T12:45:24.155Z,2.67
2019-06-27T12:47:52.878Z,2.40
2019-06-27T12:50:22.394Z,1.70
2019-06-27T12:52:51.136Z,2.07
2019-06-27T12:55:23.230Z,3.45
2019-06-27T12:58:00.638Z,1.50
2019-06-27T13:00:33.853Z,3.15
2019-06-27T13:03:02.668Z,4.53
2019-06-27T13:05:32.298Z,2.15
2019-06-27T13:08:01.107Z,5.40
2019-06-27T13:10:47.580Z,2.72
2019-06-27T13:13:22.938Z,4.37
2019-06-27T13:15:52.494Z,2.42
2019-06-27T13:18:21.241Z,1.77
2019-06-27T13:20:57.967Z,2.65
2019-06-27T13:25:47.537Z,2.10
2019-06-27T13:28:15.993Z,2.02
2019-06-27T13:30:44.731Z,2.55
2019-06-27T13:33:13.980Z,1.22
2019-06-27T13:35:42.474Z,1.07
2019-06-27T13:38:10.937Z,2.12
2019-06-27T13:40:39.455Z,1.07
2019-06-27T13:43:07.898Z,0.98
2019-06-27T13:45:37.004Z,0.55
2019-06-27T13:48:10.819Z,0.80
2019-06-27T13:50:44.344Z,4.15
2019-06-27T13:53:14.084Z,1.20
2019-06-27T13:55:42.984Z,4.70
2019-06-27T13:58:20.459Z,3.50
2019-06-27T14:00:52.133Z,2.08
2019-06-27T14:03:48.207Z,3.50
2019-06-27T14:06:06.856Z,2.62
2019-06-27T14:08:41.414Z,1.05
2019-06-27T14:11:12.597Z,2.05
2019-06-27T14:13:43.666Z,0.45
2019-06-27T14:16:15.175Z,0.40
2019-06-27T14:18:44.335Z,0.60
2019-06-27T14:21:12.918Z,0.40
2019-06-27T14:23:41.897Z,2.45
2019-06-27T14:26:10.696Z,0.68
2019-06-27T14:28:39.188Z,3.08
2019-06-27T14:31:07.671Z,2.10
2019-06-27T14:33:36.153Z,1.47
2019-06-27T14:36:04.642Z,1.77
2019-06-27T14:38:33.252Z,2.58
2019-06-27T14:41:01.605Z,1.15
2019-06-27T14:43:30.057Z,0.72
2019-06-27T14:45:58.546Z,0.80
2019-06-27T14:48:27.165Z,1.22
2019-06-27T14:51:00.728Z,0.85
2019-06-27T14:53:40.232Z,2.08
2019-06-27T14:56:09.703Z,0.65
2019-06-27T14:58:45.880Z,2.33
2019-06-27T15:01:19.157Z,3.08
2019-06-27T15:03:47.951Z,1.60
2019-06-27T15:06:19.207Z,0.90
2019-06-27T15:09:04.751Z,2.87
2019-06-27T15:11:35.560Z,1.22
2019-06-27T15:14:06.083Z,2.60
2019-06-27T15:16:35.950Z,1.65
2019-06-27T15:19:04.698Z,2.80
2019-06-27T15:21:33.134Z,1.23
2019-06-27T15:24:01.650Z,2.92
2019-06-27T15:26:30.214Z,2.58
2019-06-27T15:28:58.686Z,1.80
2019-06-27T15:31:27.418Z,2.47
2019-06-27T15:33:55.928Z,2.75
2019-06-27T15:36:25.391Z,4.47
2019-06-27T15:39:00.583Z,0.88
2019-06-27T15:41:31.292Z,1.40
2019-06-27T15:43:59.798Z,1.72
2019-06-27T15:46:32.729Z,1.40
2019-06-27T15:49:21.350Z,1.75
2019-06-27T15:51:51.063Z,2.25
2019-06-27T15:54:23.856Z,4.30
2019-06-27T15:56:53.633Z,3.62
2019-06-27T15:59:27.966Z,1.10
2019-06-27T16:01:58.706Z,2.62
2019-06-27T16:06:55.108Z,1.72
2019-06-27T16:09:24.072Z,1.95
2019-06-27T16:12:00.951Z,3.35
2019-06-27T16:14:32.454Z,3.65
2019-06-27T16:17:01.435Z,2.83
2019-06-27T16:19:36.805Z,2.25
2019-06-27T16:22:14.633Z,1.12
2019-06-27T16:24:47.727Z,1.55
2019-06-27T16:27:22.030Z,1.57
2019-06-27T16:29:52.662Z,2.85
2019-06-27T16:34:50.699Z,1.15
2019-06-27T16:37:24.234Z,2.95
2019-06-27T16:39:55.389Z,0.95
2019-06-27T16:42:26.853Z,1.67
2019-06-27T16:44:55.339Z,3.52
2019-06-27T16:47:23.847Z,1.42
2019-06-27T16:49:54.937Z,2.02
2019-06-27T16:54:56.458Z,1.40
2019-06-27T16:57:26.603Z,4.60
2019-06-27T16:59:56.878Z,6.30
2019-06-27T17:02:25.499Z,1.50
2019-06-27T17:04:57.816Z,1.72
2019-06-27T17:07:26.398Z,1.25
2019-06-27T17:09:55.088Z,1.30
2019-06-27T17:12:26.691Z,1.22
2019-06-27T17:14:55.131Z,1.07
2019-06-27T17:17:23.717Z,1.32
2019-06-27T17:19:53.229Z,1.02
2019-06-27T17:22:21.805Z,2.10
2019-06-27T17:24:51.494Z,4.70
2019-06-27T17:27:26.879Z,3.95
2019-06-27T17:29:56.396Z,0.90
2019-06-27T17:32:40.317Z,2.83
2019-06-27T17:35:17.728Z,2.47
2019-06-27T17:37:46.713Z,4.92
2019-06-27T17:40:15.177Z,1.10
2019-06-27T17:42:46.359Z,1.10
2019-06-27T17:45:14.798Z,1.57
2019-06-27T17:47:43.278Z,3.65
2019-06-27T17:50:11.804Z,3.17
2019-06-27T17:52:40.559Z,5.33
2019-06-27T17:55:11.030Z,4.62
2019-06-27T17:57:41.607Z,4.08
2019-06-27T18:02:50.459Z,1.85
2019-06-27T18:05:19.023Z,1.22
2019-06-27T18:07:49.453Z,1.65
2019-06-27T18:10:20.222Z,2.92
2019-06-27T18:12:50.761Z,3.15
2019-06-27T18:17:53.845Z,2.37
2019-06-27T18:20:22.314Z,4.33
2019-06-27T18:22:50.859Z,3.17
2019-06-27T18:25:19.286Z,3.55
2019-06-27T18:27:48.799Z,1.42
2019-06-27T18:30:19.326Z,2.62
2019-06-27T18:32:51.187Z,4.00
2019-06-27T18:35:19.922Z,2.00
2019-06-27T18:37:53.422Z,2.05
2019-06-27T18:40:22.872Z,2.98
2019-06-27T18:42:52.359Z,1.50
2019-06-27T18:45:20.857Z,1.95
2019-06-27T18:47:49.256Z,3.27
2019-06-27T18:50:18.791Z,2.80
2019-06-27T18:52:47.246Z,1.30
2019-06-27T18:55:15.722Z,4.70
2019-06-27T18:57:45.298Z,4.90
2019-06-27T19:00:14.990Z,3.60
2019-06-27T19:02:45.463Z,5.00
2019-06-27T19:05:13.946Z,2.50
2019-06-27T19:07:45.997Z,3.00
2019-06-27T19:10:14.025Z,5.05
2019-06-27T19:12:48.288Z,3.17
2019-06-27T19:15:16.867Z,2.15
2019-06-27T19:17:48.138Z,1.60
2019-06-27T19:20:32.362Z,4.03
2019-06-27T19:23:22.024Z,2.08
2019-06-27T19:26:08.582Z,3.40
2019-06-27T19:28:44.263Z,8.45
2019-06-27T19:31:16.983Z,3.13
2019-06-27T19:33:51.281Z,2.37
2019-06-27T19:36:21.715Z,3.62
2019-06-27T19:38:51.219Z,4.87
2019-06-27T19:41:22.526Z,6.05
2019-06-27T19:43:54.651Z,3.62
2019-06-27T19:46:24.390Z,2.75
2019-06-27T19:48:52.822Z,5.30
2019-06-27T19:51:24.697Z,4.30
2019-06-27T19:53:53.167Z,2.30
2019-06-27T19:56:22.692Z,2.35
2019-06-27T19:58:51.138Z,3.85
2019-06-27T20:01:20.554Z,3.08
2019-06-27T20:03:49.035Z,4.20
2019-06-27T20:06:17.602Z,3.70
2019-06-27T20:08:48.149Z,2.77
2019-06-27T20:11:17.654Z,1.65
2019-06-27T20:13:46.126Z,3.00
2019-06-27T20:16:14.604Z,3.72
2019-06-27T20:18:45.279Z,2.50
2019-06-27T20:21:14.784Z,3.98
2019-06-27T20:23:43.228Z,4.00
2019-06-27T20:26:11.714Z,2.87
2019-06-27T20:28:40.185Z,3.83
2019-06-27T20:31:08.666Z,4.25
2019-06-27T20:33:37.173Z,5.03
2019-06-27T20:36:05.621Z,1.37
2019-06-27T20:38:37.574Z,8.03
2019-06-27T20:41:06.343Z,4.55
2019-06-27T20:43:34.847Z,5.60
2019-06-27T20:46:03.333Z,3.70
2019-06-27T20:48:31.832Z,2.70
2019-06-27T20:51:01.330Z,1.67
2019-06-27T20:53:29.808Z,5.33
2019-06-27T20:55:58.519Z,2.30
2019-06-27T20:58:27.606Z,4.00
2019-06-27T21:00:56.084Z,6.12
2019-06-27T21:03:24.580Z,2.67
2019-06-27T21:05:53.060Z,7.25
2019-06-27T21:08:21.513Z,6.40
2019-06-27T21:10:51.987Z,2.62
2019-06-27T21:13:20.431Z,2.77
2019-06-27T21:15:50.450Z,4.28
2019-06-27T21:18:17.394Z,2.40
2019-06-27T21:20:45.817Z,4.85
2019-06-27T21:23:14.285Z,3.52
2019-06-27T21:25:43.612Z,2.35
2019-06-27T21:28:12.074Z,2.72
2019-06-27T21:30:40.558Z,4.05
2019-06-27T21:33:09.023Z,3.27
2019-06-27T21:35:37.534Z,4.70
2019-06-27T21:38:06.279Z,4.12
2019-06-27T21:40:35.054Z,2.90
2019-06-27T21:43:03.585Z,5.05
2019-06-27T21:45:32.321Z,2.98
2019-06-27T21:48:00.737Z,2.08
2019-06-27T21:50:29.229Z,3.35
2019-06-27T21:52:58.212Z,3.55
2019-06-27T21:55:26.717Z,4.65
2019-06-27T21:57:55.183Z,5.92
2019-06-27T22:00:23.678Z,3.60
2019-06-27T22:02:52.137Z,4.85
2019-06-27T22:05:20.633Z,2.47
2019-06-27T22:07:52.458Z,3.95
2019-06-27T22:10:17.801Z,3.60
2019-06-27T22:12:46.255Z,3.22
2019-06-27T22:15:14.754Z,3.72
2019-06-27T22:17:43.151Z,3.90
2019-06-27T22:20:15.711Z,2.75
2019-06-27T22:22:40.094Z,5.10
2019-06-27T22:25:08.670Z,5.95
2019-06-27T22:27:37.053Z,6.28
2019-06-27T22:30:05.829Z,5.83
2019-06-27T22:32:34.329Z,5.30
2019-06-27T22:35:02.811Z,4.60
2019-06-27T22:37:30.655Z,3.95
2019-06-27T22:40:16.954Z,2.55
2019-06-27T22:43:04.503Z,2.80
2019-06-27T22:45:49.614Z,4.35
2019-06-27T22:48:17.329Z,5.70
2019-06-27T22:50:58.397Z,4.80
2019-06-27T22:53:27.235Z,2.05
2019-06-27T22:55:55.905Z,4.12
2019-06-27T22:58:24.330Z,2.70
2019-06-27T23:00:52.865Z,4.55
2019-06-27T23:03:21.292Z,2.90
2019-06-27T23:05:49.773Z,2.37
2019-06-27T23:08:18.512Z,4.65
2019-06-27T23:10:46.954Z,3.90
2019-06-27T23:13:15.425Z,3.37
2019-06-27T23:15:43.909Z,2.90
2019-06-27T23:18:12.376Z,3.05
2019-06-27T23:20:40.794Z,7.72
2019-06-27T23:23:09.512Z,2.85
2019-06-27T23:25:38.988Z,3.35
2019-06-27T23:28:07.460Z,3.00
2019-06-27T23:30:36.018Z,1.98
2019-06-27T23:33:04.444Z,2.72
2019-06-27T23:35:33.210Z,4.85
2019-06-27T23:38:01.696Z,4.72
2019-06-27T23:40:30.478Z,3.17
2019-06-27T23:42:59.473Z,5.37
2019-06-27T23:45:27.954Z,3.52
2019-06-27T23:47:56.354Z,1.90
2019-06-27T23:50:25.934Z,3.37
2019-06-27T23:52:54.342Z,5.20
2019-06-27T23:55:22.909Z,3.10
2019-06-27T23:57:51.342Z,2.70
